sensor_id;sensor_type;location;lat;lon;timestamp;P1;durP1;ratioP1;P2;durP2;ratioP2
25319;SDS011;13256;49.012;8.610;2022-10-16T00:00:29;4.72;;;1.98;;
25319;SDS011;13256;49.012;8.610;2022-10-16T00:03:02;4.85;;;2.08;;
25319;SDS011;13256;49.012;8.610;2022-10-16T00:05:32;2.30;;;1.20;;
25319;SDS011;13256;49.012;8.610;2022-10-16T00:08:17;2.38;;;1.30;;
25319;SDS011;13256;49.012;8.610;2022-10-16T00:10:48;3.07;;;1.10;;
25319;SDS011;13256;49.012;8.610;2022-10-16T00:16:14;6.57;;;1.30;;
25319;SDS011;13256;49.012;8.610;2022-10-16T00:18:41;2.40;;;1.15;;
25319;SDS011;13256;49.012;8.610;2022-10-16T00:21:32;2.00;;;1.15;;
25319;SDS011;13256;49.012;8.610;2022-10-16T00:24:12;3.20;;;1.00;;
25319;SDS011;13256;49.012;8.610;2022-10-16T00:26:43;1.35;;;0.80;;
25319;SDS011;13256;49.012;8.610;2022-10-16T00:29:26;1.90;;;0.90;;
25319;SDS011;13256;49.012;8.610;2022-10-16T00:31:55;1.70;;;0.70;;
25319;SDS011;13256;49.012;8.610;2022-10-16T00:34:22;2.08;;;0.95;;
25319;SDS011;13256;49.012;8.610;2022-10-16T00:36:54;3.28;;;1.35;;
25319;SDS011;13256;49.012;8.610;2022-10-16T00:39:22;4.70;;;1.30;;
25319;SDS011;13256;49.012;8.610;2022-10-16T00:41:51;3.92;;;1.92;;
25319;SDS011;13256;49.012;8.610;2022-10-16T00:48:03;4.47;;;1.98;;
25319;SDS011;13256;49.012;8.610;2022-10-16T00:53:54;3.90;;;1.70;;
25319;SDS011;13256;49.012;8.610;2022-10-16T00:56:31;2.90;;;1.60;;
25319;SDS011;13256;49.012;8.610;2022-10-16T01:08:27;3.35;;;1.75;;
25319;SDS011;13256;49.012;8.610;2022-10-16T01:17:19;6.35;;;2.17;;
25319;SDS011;13256;49.012;8.610;2022-10-16T01:20:11;2.42;;;1.38;;
25319;SDS011;13256;49.012;8.610;2022-10-16T01:29:20;3.03;;;1.65;;
25319;SDS011;13256;49.012;8.610;2022-10-16T01:31:48;1.83;;;1.00;;
25319;SDS011;13256;49.012;8.610;2022-10-16T01:34:37;0.82;;;0.82;;
25319;SDS011;13256;49.012;8.610;2022-10-16T01:37:14;2.83;;;1.25;;
25319;SDS011;13256;49.012;8.610;2022-10-16T01:39:45;2.47;;;1.33;;
25319;SDS011;13256;49.012;8.610;2022-10-16T01:46:11;1.90;;;1.20;;
25319;SDS011;13256;49.012;8.610;2022-10-16T01:48:46;2.00;;;1.15;;
25319;SDS011;13256;49.012;8.610;2022-10-16T01:51:22;1.35;;;1.10;;
25319;SDS011;13256;49.012;8.610;2022-10-16T01:56:19;1.30;;;0.88;;
25319;SDS011;13256;49.012;8.610;2022-10-16T01:58:54;1.92;;;1.00;;
25319;SDS011;13256;49.012;8.610;2022-10-16T02:01:31;1.55;;;1.10;;
25319;SDS011;13256;49.012;8.610;2022-10-16T02:04:15;1.40;;;1.00;;
25319;SDS011;13256;49.012;8.610;2022-10-16T02:08:38;1.65;;;1.05;;
25319;SDS011;13256;49.012;8.610;2022-10-16T02:11:50;0.85;;;0.75;;
25319;SDS011;13256;49.012;8.610;2022-10-16T02:14:23;3.53;;;1.27;;
25319;SDS011;13256;49.012;8.610;2022-10-16T02:16:54;0.93;;;0.80;;
25319;SDS011;13256;49.012;8.610;2022-10-16T02:19:23;1.25;;;0.80;;
25319;SDS011;13256;49.012;8.610;2022-10-16T02:22:03;2.10;;;0.90;;
25319;SDS011;13256;49.012;8.610;2022-10-16T02:27:41;2.25;;;1.00;;
25319;SDS011;13256;49.012;8.610;2022-10-16T02:33:27;2.53;;;1.00;;
25319;SDS011;13256;49.012;8.610;2022-10-16T02:35:57;1.80;;;1.30;;
25319;SDS011;13256;49.012;8.610;2022-10-16T02:38:39;1.08;;;0.80;;
25319;SDS011;13256;49.012;8.610;2022-10-16T02:44:04;2.72;;;1.10;;
25319;SDS011;13256;49.012;8.610;2022-10-16T02:46:35;1.90;;;1.15;;
25319;SDS011;13256;49.012;8.610;2022-10-16T02:49:06;1.63;;;1.20;;
25319;SDS011;13256;49.012;8.610;2022-10-16T02:54:34;2.30;;;1.17;;
25319;SDS011;13256;49.012;8.610;2022-10-16T02:57:36;2.65;;;1.20;;
25319;SDS011;13256;49.012;8.610;2022-10-16T03:03:00;2.17;;;1.10;;
25319;SDS011;13256;49.012;8.610;2022-10-16T03:05:26;3.72;;;1.58;;
25319;SDS011;13256;49.012;8.610;2022-10-16T03:08:00;2.25;;;0.90;;
25319;SDS011;13256;49.012;8.610;2022-10-16T03:19:54;1.33;;;0.95;;
25319;SDS011;13256;49.012;8.610;2022-10-16T03:22:32;2.22;;;1.20;;
25319;SDS011;13256;49.012;8.610;2022-10-16T03:25:19;2.22;;;1.48;;
25319;SDS011;13256;49.012;8.610;2022-10-16T03:31:07;2.60;;;1.45;;
25319;SDS011;13256;49.012;8.610;2022-10-16T03:33:35;6.25;;;1.90;;
25319;SDS011;13256;49.012;8.610;2022-10-16T03:36:06;3.00;;;1.40;;
25319;SDS011;13256;49.012;8.610;2022-10-16T03:38:37;2.50;;;1.30;;
25319;SDS011;13256;49.012;8.610;2022-10-16T03:41:05;2.55;;;1.45;;
25319;SDS011;13256;49.012;8.610;2022-10-16T03:49:33;3.05;;;1.60;;
25319;SDS011;13256;49.012;8.610;2022-10-16T03:52:03;3.78;;;1.50;;
25319;SDS011;13256;49.012;8.610;2022-10-16T03:54:32;3.42;;;1.50;;
25319;SDS011;13256;49.012;8.610;2022-10-16T03:57:02;1.65;;;0.98;;
25319;SDS011;13256;49.012;8.610;2022-10-16T03:59:29;2.03;;;1.05;;
25319;SDS011;13256;49.012;8.610;2022-10-16T04:01:57;4.53;;;1.30;;
25319;SDS011;13256;49.012;8.610;2022-10-16T04:04:35;2.38;;;1.33;;
25319;SDS011;13256;49.012;8.610;2022-10-16T04:07:09;3.30;;;1.23;;
25319;SDS011;13256;49.012;8.610;2022-10-16T04:09:41;2.05;;;0.88;;
25319;SDS011;13256;49.012;8.610;2022-10-16T04:15:15;1.65;;;1.30;;
25319;SDS011;13256;49.012;8.610;2022-10-16T04:17:44;3.72;;;1.13;;
25319;SDS011;13256;49.012;8.610;2022-10-16T04:20:21;2.75;;;1.35;;
25319;SDS011;13256;49.012;8.610;2022-10-16T04:22:50;2.92;;;1.42;;
25319;SDS011;13256;49.012;8.610;2022-10-16T04:25:17;0.93;;;0.93;;
25319;SDS011;13256;49.012;8.610;2022-10-16T04:27:52;3.00;;;1.23;;
25319;SDS011;13256;49.012;8.610;2022-10-16T04:30:53;4.05;;;1.40;;
25319;SDS011;13256;49.012;8.610;2022-10-16T04:33:23;2.40;;;1.60;;
25319;SDS011;13256;49.012;8.610;2022-10-16T04:36:00;1.98;;;1.50;;
25319;SDS011;13256;49.012;8.610;2022-10-16T04:38:29;2.72;;;1.48;;
25319;SDS011;13256;49.012;8.610;2022-10-16T04:41:00;2.78;;;1.75;;
25319;SDS011;13256;49.012;8.610;2022-10-16T04:46:37;3.28;;;1.60;;
25319;SDS011;13256;49.012;8.610;2022-10-16T04:49:04;6.25;;;1.70;;
25319;SDS011;13256;49.012;8.610;2022-10-16T04:51:34;4.85;;;1.85;;
25319;SDS011;13256;49.012;8.610;2022-10-16T04:54:04;2.60;;;1.30;;
25319;SDS011;13256;49.012;8.610;2022-10-16T04:59:32;2.85;;;2.00;;
25319;SDS011;13256;49.012;8.610;2022-10-16T05:01:59;13.70;;;3.03;;
25319;SDS011;13256;49.012;8.610;2022-10-16T05:04:32;4.15;;;3.00;;
25319;SDS011;13256;49.012;8.610;2022-10-16T05:09:58;2.92;;;2.13;;
25319;SDS011;13256;49.012;8.610;2022-10-16T05:12:37;3.67;;;2.40;;
25319;SDS011;13256;49.012;8.610;2022-10-16T05:15:05;4.07;;;1.90;;
25319;SDS011;13256;49.012;8.610;2022-10-16T05:17:34;5.22;;;2.15;;
25319;SDS011;13256;49.012;8.610;2022-10-16T05:20:13;3.67;;;2.10;;
25319;SDS011;13256;49.012;8.610;2022-10-16T05:31:32;3.20;;;2.00;;
25319;SDS011;13256;49.012;8.610;2022-10-16T05:34:03;4.18;;;2.15;;
25319;SDS011;13256;49.012;8.610;2022-10-16T05:36:30;3.85;;;2.08;;
25319;SDS011;13256;49.012;8.610;2022-10-16T05:39:00;2.97;;;2.15;;
25319;SDS011;13256;49.012;8.610;2022-10-16T05:41:29;4.30;;;2.55;;
25319;SDS011;13256;49.012;8.610;2022-10-16T05:43:56;4.78;;;2.50;;
25319;SDS011;13256;49.012;8.610;2022-10-16T05:46:24;10.13;;;3.05;;
25319;SDS011;13256;49.012;8.610;2022-10-16T05:48:53;4.88;;;2.50;;
25319;SDS011;13256;49.012;8.610;2022-10-16T05:51:22;3.30;;;2.78;;
25319;SDS011;13256;49.012;8.610;2022-10-16T05:53:51;4.20;;;2.53;;
25319;SDS011;13256;49.012;8.610;2022-10-16T05:56:21;9.95;;;5.05;;
25319;SDS011;13256;49.012;8.610;2022-10-16T05:58:48;12.52;;;7.13;;
25319;SDS011;13256;49.012;8.610;2022-10-16T06:01:18;11.98;;;7.07;;
25319;SDS011;13256;49.012;8.610;2022-10-16T06:04:00;11.32;;;4.80;;
25319;SDS011;13256;49.012;8.610;2022-10-16T06:06:28;9.13;;;4.97;;
25319;SDS011;13256;49.012;8.610;2022-10-16T06:08:55;6.90;;;4.90;;
25319;SDS011;13256;49.012;8.610;2022-10-16T06:11:24;7.68;;;4.55;;
25319;SDS011;13256;49.012;8.610;2022-10-16T06:13:59;7.90;;;4.00;;
25319;SDS011;13256;49.012;8.610;2022-10-16T06:16:28;6.10;;;4.40;;
25319;SDS011;13256;49.012;8.610;2022-10-16T06:18:58;8.75;;;4.63;;
25319;SDS011;13256;49.012;8.610;2022-10-16T06:21:26;5.57;;;4.35;;
25319;SDS011;13256;49.012;8.610;2022-10-16T06:23:55;7.38;;;4.97;;
25319;SDS011;13256;49.012;8.610;2022-10-16T06:26:24;8.57;;;4.50;;
25319;SDS011;13256;49.012;8.610;2022-10-16T06:28:56;9.15;;;4.63;;
25319;SDS011;13256;49.012;8.610;2022-10-16T06:31:29;7.93;;;5.13;;
25319;SDS011;13256;49.012;8.610;2022-10-16T06:34:00;21.15;;;6.20;;
25319;SDS011;13256;49.012;8.610;2022-10-16T06:36:29;10.23;;;4.55;;
25319;SDS011;13256;49.012;8.610;2022-10-16T06:38:58;8.48;;;5.05;;
25319;SDS011;13256;49.012;8.610;2022-10-16T06:41:25;8.85;;;5.15;;
25319;SDS011;13256;49.012;8.610;2022-10-16T06:44:00;10.43;;;5.95;;
25319;SDS011;13256;49.012;8.610;2022-10-16T06:46:30;12.00;;;6.15;;
25319;SDS011;13256;49.012;8.610;2022-10-16T06:48:57;15.73;;;8.02;;
25319;SDS011;13256;49.012;8.610;2022-10-16T06:51:28;9.85;;;7.18;;
25319;SDS011;13256;49.012;8.610;2022-10-16T06:53:58;14.18;;;7.95;;
25319;SDS011;13256;49.012;8.610;2022-10-16T06:56:30;18.13;;;9.37;;
25319;SDS011;13256;49.012;8.610;2022-10-16T06:59:01;12.52;;;8.32;;
25319;SDS011;13256;49.012;8.610;2022-10-16T07:01:31;14.80;;;6.53;;
25319;SDS011;13256;49.012;8.610;2022-10-16T07:04:02;8.77;;;5.55;;
25319;SDS011;13256;49.012;8.610;2022-10-16T07:06:34;10.70;;;4.80;;
25319;SDS011;13256;49.012;8.610;2022-10-16T07:09:04;5.93;;;4.13;;
25319;SDS011;13256;49.012;8.610;2022-10-16T07:11:39;6.00;;;3.40;;
25319;SDS011;13256;49.012;8.610;2022-10-16T07:14:18;5.25;;;3.33;;
25319;SDS011;13256;49.012;8.610;2022-10-16T07:16:47;4.90;;;3.42;;
25319;SDS011;13256;49.012;8.610;2022-10-16T07:19:17;6.28;;;3.20;;
25319;SDS011;13256;49.012;8.610;2022-10-16T07:21:44;4.10;;;2.85;;
25319;SDS011;13256;49.012;8.610;2022-10-16T07:24:14;5.10;;;3.25;;
25319;SDS011;13256;49.012;8.610;2022-10-16T07:26:45;4.30;;;2.55;;
25319;SDS011;13256;49.012;8.610;2022-10-16T07:29:18;7.55;;;2.75;;
25319;SDS011;13256;49.012;8.610;2022-10-16T07:31:48;3.60;;;2.55;;
25319;SDS011;13256;49.012;8.610;2022-10-16T07:40:14;7.65;;;2.22;;
25319;SDS011;13256;49.012;8.610;2022-10-16T07:45:14;4.22;;;2.20;;
25319;SDS011;13256;49.012;8.610;2022-10-16T07:47:45;8.52;;;4.60;;
25319;SDS011;13256;49.012;8.610;2022-10-16T07:50:18;8.52;;;3.95;;
25319;SDS011;13256;49.012;8.610;2022-10-16T07:52:44;6.70;;;3.67;;
25319;SDS011;13256;49.012;8.610;2022-10-16T07:55:12;6.00;;;3.05;;
25319;SDS011;13256;49.012;8.610;2022-10-16T07:57:42;3.60;;;2.55;;
25319;SDS011;13256;49.012;8.610;2022-10-16T08:00:09;3.75;;;2.50;;
25319;SDS011;13256;49.012;8.610;2022-10-16T08:02:41;6.00;;;3.30;;
25319;SDS011;13256;49.012;8.610;2022-10-16T08:05:07;4.43;;;3.30;;
25319;SDS011;13256;49.012;8.610;2022-10-16T08:07:34;5.70;;;3.80;;
25319;SDS011;13256;49.012;8.610;2022-10-16T08:10:02;9.93;;;3.60;;
25319;SDS011;13256;49.012;8.610;2022-10-16T08:12:31;11.50;;;3.33;;
25319;SDS011;13256;49.012;8.610;2022-10-16T08:17:30;13.50;;;5.13;;
25319;SDS011;13256;49.012;8.610;2022-10-16T08:19:56;14.02;;;8.35;;
25319;SDS011;13256;49.012;8.610;2022-10-16T08:22:23;13.73;;;8.02;;
25319;SDS011;13256;49.012;8.610;2022-10-16T08:24:50;13.93;;;8.20;;
25319;SDS011;13256;49.012;8.610;2022-10-16T08:27:16;8.88;;;4.38;;
25319;SDS011;13256;49.012;8.610;2022-10-16T08:29:43;7.82;;;3.38;;
25319;SDS011;13256;49.012;8.610;2022-10-16T08:32:10;4.35;;;2.70;;
25319;SDS011;13256;49.012;8.610;2022-10-16T08:34:37;3.40;;;3.10;;
25319;SDS011;13256;49.012;8.610;2022-10-16T08:37:03;7.07;;;5.38;;
25319;SDS011;13256;49.012;8.610;2022-10-16T08:39:31;4.22;;;2.97;;
25319;SDS011;13256;49.012;8.610;2022-10-16T08:44:34;8.23;;;2.60;;
25319;SDS011;13256;49.012;8.610;2022-10-16T08:47:23;3.47;;;2.72;;
25319;SDS011;13256;49.012;8.610;2022-10-16T08:50:00;3.45;;;2.63;;
25319;SDS011;13256;49.012;8.610;2022-10-16T08:52:40;4.38;;;3.00;;
25319;SDS011;13256;49.012;8.610;2022-10-16T08:57:58;4.45;;;2.55;;
25319;SDS011;13256;49.012;8.610;2022-10-16T09:00:30;5.90;;;2.65;;
25319;SDS011;13256;49.012;8.610;2022-10-16T09:03:04;3.03;;;2.45;;
25319;SDS011;13256;49.012;8.610;2022-10-16T09:08:27;3.07;;;2.20;;
25319;SDS011;13256;49.012;8.610;2022-10-16T09:10:57;3.83;;;2.28;;
25319;SDS011;13256;49.012;8.610;2022-10-16T09:20:34;3.63;;;1.35;;
25319;SDS011;13256;49.012;8.610;2022-10-16T09:28:54;3.63;;;1.40;;
25319;SDS011;13256;49.012;8.610;2022-10-16T09:31:25;2.60;;;1.38;;
25319;SDS011;13256;49.012;8.610;2022-10-16T09:33:53;3.45;;;2.33;;
25319;SDS011;13256;49.012;8.610;2022-10-16T09:36:21;6.32;;;1.83;;
25319;SDS011;13256;49.012;8.610;2022-10-16T09:39:00;1.85;;;1.60;;
25319;SDS011;13256;49.012;8.610;2022-10-16T09:41:34;1.80;;;1.10;;
25319;SDS011;13256;49.012;8.610;2022-10-16T09:44:18;3.95;;;1.23;;
25319;SDS011;13256;49.012;8.610;2022-10-16T09:47:04;2.33;;;1.60;;
25319;SDS011;13256;49.012;8.610;2022-10-16T09:50:44;8.48;;;1.98;;
25319;SDS011;13256;49.012;8.610;2022-10-16T09:52:51;1.30;;;1.02;;
25319;SDS011;13256;49.012;8.610;2022-10-16T09:55:28;3.10;;;2.13;;
25319;SDS011;13256;49.012;8.610;2022-10-16T09:57:57;2.90;;;1.20;;
25319;SDS011;13256;49.012;8.610;2022-10-16T10:00:31;2.15;;;1.08;;
25319;SDS011;13256;49.012;8.610;2022-10-16T10:02:58;4.40;;;1.70;;
25319;SDS011;13256;49.012;8.610;2022-10-16T10:05:28;3.75;;;1.02;;
25319;SDS011;13256;49.012;8.610;2022-10-16T10:07:59;3.10;;;1.65;;
25319;SDS011;13256;49.012;8.610;2022-10-16T10:10:30;2.63;;;1.30;;
25319;SDS011;13256;49.012;8.610;2022-10-16T10:12:58;4.63;;;1.30;;
25319;SDS011;13256;49.012;8.610;2022-10-16T10:15:32;1.38;;;1.00;;
25319;SDS011;13256;49.012;8.610;2022-10-16T10:18:16;1.88;;;1.15;;
25319;SDS011;13256;49.012;8.610;2022-10-16T10:20:57;1.48;;;1.02;;
25319;SDS011;13256;49.012;8.610;2022-10-16T10:23:29;3.67;;;0.95;;
25319;SDS011;13256;49.012;8.610;2022-10-16T10:28:55;3.65;;;1.20;;
25319;SDS011;13256;49.012;8.610;2022-10-16T10:34:47;1.23;;;0.70;;
25319;SDS011;13256;49.012;8.610;2022-10-16T10:43:10;2.45;;;0.90;;
25319;SDS011;13256;49.012;8.610;2022-10-16T10:45:48;1.30;;;1.13;;
25319;SDS011;13256;49.012;8.610;2022-10-16T10:51:15;2.42;;;1.25;;
25319;SDS011;13256;49.012;8.610;2022-10-16T11:05:31;1.33;;;0.95;;
25319;SDS011;13256;49.012;8.610;2022-10-16T11:08:41;1.65;;;1.20;;
25319;SDS011;13256;49.012;8.610;2022-10-16T11:14:00;2.03;;;0.90;;
25319;SDS011;13256;49.012;8.610;2022-10-16T11:16:39;3.03;;;0.95;;
25319;SDS011;13256;49.012;8.610;2022-10-16T11:24:55;2.00;;;1.00;;
25319;SDS011;13256;49.012;8.610;2022-10-16T11:30:47;2.70;;;1.10;;
25319;SDS011;13256;49.012;8.610;2022-10-16T11:36:29;2.35;;;0.90;;
25319;SDS011;13256;49.012;8.610;2022-10-16T11:39:19;0.98;;;0.77;;
25319;SDS011;13256;49.012;8.610;2022-10-16T11:44:32;1.58;;;0.90;;
25319;SDS011;13256;49.012;8.610;2022-10-16T11:53:02;1.20;;;0.90;;
25319;SDS011;13256;49.012;8.610;2022-10-16T11:55:35;2.22;;;1.05;;
25319;SDS011;13256;49.012;8.610;2022-10-16T12:00:56;1.95;;;0.98;;
25319;SDS011;13256;49.012;8.610;2022-10-16T12:09:24;2.05;;;1.05;;
25319;SDS011;13256;49.012;8.610;2022-10-16T12:11:53;7.22;;;1.08;;
25319;SDS011;13256;49.012;8.610;2022-10-16T12:14:21;2.03;;;1.00;;
25319;SDS011;13256;49.012;8.610;2022-10-16T12:17:04;1.00;;;0.70;;
25319;SDS011;13256;49.012;8.610;2022-10-16T12:20:53;0.88;;;0.80;;
25319;SDS011;13256;49.012;8.610;2022-10-16T12:22:50;1.65;;;0.95;;
25319;SDS011;13256;49.012;8.610;2022-10-16T12:25:42;0.63;;;0.63;;
25319;SDS011;13256;49.012;8.610;2022-10-16T12:30:58;4.63;;;1.00;;
25319;SDS011;13256;49.012;8.610;2022-10-16T12:33:27;1.10;;;1.00;;
25319;SDS011;13256;49.012;8.610;2022-10-16T12:36:07;4.43;;;0.90;;
25319;SDS011;13256;49.012;8.610;2022-10-16T12:38:53;1.48;;;1.00;;
25319;SDS011;13256;49.012;8.610;2022-10-16T12:41:27;0.95;;;0.80;;
25319;SDS011;13256;49.012;8.610;2022-10-16T12:44:03;4.25;;;0.80;;
25319;SDS011;13256;49.012;8.610;2022-10-16T12:46:36;2.92;;;0.98;;
25319;SDS011;13256;49.012;8.610;2022-10-16T12:51:42;1.23;;;0.98;;
25319;SDS011;13256;49.012;8.610;2022-10-16T12:59:44;3.47;;;1.25;;
25319;SDS011;13256;49.012;8.610;2022-10-16T13:28:10;1.80;;;0.95;;
25319;SDS011;13256;49.012;8.610;2022-10-16T13:30:52;3.60;;;1.20;;
25319;SDS011;13256;49.012;8.610;2022-10-16T13:36:20;1.35;;;1.10;;
25319;SDS011;13256;49.012;8.610;2022-10-16T13:39:06;1.92;;;1.35;;
25319;SDS011;13256;49.012;8.610;2022-10-16T13:44:35;1.10;;;0.82;;
25319;SDS011;13256;49.012;8.610;2022-10-16T13:50:13;2.95;;;0.80;;
25319;SDS011;13256;49.012;8.610;2022-10-16T13:53:02;0.80;;;0.80;;
25319;SDS011;13256;49.012;8.610;2022-10-16T13:55:40;0.90;;;0.80;;
25319;SDS011;13256;49.012;8.610;2022-10-16T14:01:05;2.28;;;0.90;;
25319;SDS011;13256;49.012;8.610;2022-10-16T14:04:01;1.33;;;0.93;;
25319;SDS011;13256;49.012;8.610;2022-10-16T14:12:10;1.27;;;0.95;;
25319;SDS011;13256;49.012;8.610;2022-10-16T14:14:46;1.13;;;0.90;;
25319;SDS011;13256;49.012;8.610;2022-10-16T14:17:26;2.45;;;0.93;;
25319;SDS011;13256;49.012;8.610;2022-10-16T14:20:04;3.03;;;1.00;;
25319;SDS011;13256;49.012;8.610;2022-10-16T14:22:45;1.60;;;0.90;;
25319;SDS011;13256;49.012;8.610;2022-10-16T14:25:32;2.33;;;1.20;;
25319;SDS011;13256;49.012;8.610;2022-10-16T14:28:03;4.43;;;1.10;;
25319;SDS011;13256;49.012;8.610;2022-10-16T14:30:56;5.28;;;1.48;;
25319;SDS011;13256;49.012;8.610;2022-10-16T14:33:32;2.25;;;1.40;;
25319;SDS011;13256;49.012;8.610;2022-10-16T14:38:35;4.50;;;1.75;;
25319;SDS011;13256;49.012;8.610;2022-10-16T14:41:05;3.15;;;1.75;;
25319;SDS011;13256;49.012;8.610;2022-10-16T14:43:39;1.65;;;1.33;;
25319;SDS011;13256;49.012;8.610;2022-10-16T14:51:39;2.65;;;1.20;;
25319;SDS011;13256;49.012;8.610;2022-10-16T14:54:15;1.75;;;0.93;;
25319;SDS011;13256;49.012;8.610;2022-10-16T14:56:48;2.33;;;0.93;;
25319;SDS011;13256;49.012;8.610;2022-10-16T15:02:46;3.35;;;1.00;;
25319;SDS011;13256;49.012;8.610;2022-10-16T15:04:55;3.65;;;1.30;;
25319;SDS011;13256;49.012;8.610;2022-10-16T15:07:23;2.70;;;1.00;;
25319;SDS011;13256;49.012;8.610;2022-10-16T15:09:51;1.77;;;1.10;;
25319;SDS011;13256;49.012;8.610;2022-10-16T15:12:28;4.05;;;1.30;;
25319;SDS011;13256;49.012;8.610;2022-10-16T15:14:55;3.95;;;1.20;;
25319;SDS011;13256;49.012;8.610;2022-10-16T15:17:25;1.20;;;1.10;;
25319;SDS011;13256;49.012;8.610;2022-10-16T15:22:40;2.38;;;0.90;;
25319;SDS011;13256;49.012;8.610;2022-10-16T15:27:57;2.00;;;1.40;;
25319;SDS011;13256;49.012;8.610;2022-10-16T15:30:29;3.83;;;2.20;;
25319;SDS011;13256;49.012;8.610;2022-10-16T15:33:00;2.78;;;1.80;;
25319;SDS011;13256;49.012;8.610;2022-10-16T15:35:28;5.40;;;1.90;;
25319;SDS011;13256;49.012;8.610;2022-10-16T15:40:52;4.25;;;2.20;;
25319;SDS011;13256;49.012;8.610;2022-10-16T15:43:18;3.55;;;2.22;;
25319;SDS011;13256;49.012;8.610;2022-10-16T15:46:02;7.47;;;2.35;;
25319;SDS011;13256;49.012;8.610;2022-10-16T15:48:31;3.17;;;2.45;;
25319;SDS011;13256;49.012;8.610;2022-10-16T15:51:00;2.38;;;2.03;;
25319;SDS011;13256;49.012;8.610;2022-10-16T15:53:31;2.17;;;1.98;;
25319;SDS011;13256;49.012;8.610;2022-10-16T15:56:03;1.45;;;1.30;;
25319;SDS011;13256;49.012;8.610;2022-10-16T15:58:35;6.82;;;1.27;;
25319;SDS011;13256;49.012;8.610;2022-10-16T16:01:02;4.63;;;1.73;;
25319;SDS011;13256;49.012;8.610;2022-10-16T16:03:32;17.00;;;2.90;;
25319;SDS011;13256;49.012;8.610;2022-10-16T16:06:03;8.88;;;4.68;;
25319;SDS011;13256;49.012;8.610;2022-10-16T16:11:25;14.32;;;6.78;;
25319;SDS011;13256;49.012;8.610;2022-10-16T16:13:52;6.25;;;3.78;;
25319;SDS011;13256;49.012;8.610;2022-10-16T16:16:48;8.48;;;3.72;;
25319;SDS011;13256;49.012;8.610;2022-10-16T16:19:15;7.90;;;3.58;;
25319;SDS011;13256;49.012;8.610;2022-10-16T16:21:44;3.53;;;2.70;;
25319;SDS011;13256;49.012;8.610;2022-10-16T16:24:15;4.82;;;2.20;;
25319;SDS011;13256;49.012;8.610;2022-10-16T16:26:43;2.08;;;1.90;;
25319;SDS011;13256;49.012;8.610;2022-10-16T16:29:11;2.60;;;2.30;;
25319;SDS011;13256;49.012;8.610;2022-10-16T16:31:51;3.80;;;2.67;;
25319;SDS011;13256;49.012;8.610;2022-10-16T16:34:25;5.60;;;2.78;;
25319;SDS011;13256;49.012;8.610;2022-10-16T16:36:56;4.68;;;2.50;;
25319;SDS011;13256;49.012;8.610;2022-10-16T16:39:23;2.53;;;2.30;;
25319;SDS011;13256;49.012;8.610;2022-10-16T16:41:50;5.00;;;2.60;;
25319;SDS011;13256;49.012;8.610;2022-10-16T16:44:16;3.55;;;2.70;;
25319;SDS011;13256;49.012;8.610;2022-10-16T16:46:50;4.45;;;2.45;;
25319;SDS011;13256;49.012;8.610;2022-10-16T16:49:17;2.75;;;2.15;;
25319;SDS011;13256;49.012;8.610;2022-10-16T16:51:46;3.85;;;2.65;;
25319;SDS011;13256;49.012;8.610;2022-10-16T16:54:13;4.93;;;2.95;;
25319;SDS011;13256;49.012;8.610;2022-10-16T16:56:44;4.28;;;2.50;;
25319;SDS011;13256;49.012;8.610;2022-10-16T16:59:15;2.55;;;1.80;;
25319;SDS011;13256;49.012;8.610;2022-10-16T17:01:48;3.03;;;1.90;;
25319;SDS011;13256;49.012;8.610;2022-10-16T17:04:22;3.90;;;2.40;;
25319;SDS011;13256;49.012;8.610;2022-10-16T17:06:54;17.58;;;2.72;;
25319;SDS011;13256;49.012;8.610;2022-10-16T17:09:50;5.05;;;2.22;;
25319;SDS011;13256;49.012;8.610;2022-10-16T17:12:17;7.78;;;2.03;;
25319;SDS011;13256;49.012;8.610;2022-10-16T17:14:46;3.72;;;2.10;;
25319;SDS011;13256;49.012;8.610;2022-10-16T17:17:13;4.68;;;1.77;;
25319;SDS011;13256;49.012;8.610;2022-10-16T17:19:46;4.32;;;2.80;;
25319;SDS011;13256;49.012;8.610;2022-10-16T17:22:14;4.85;;;3.40;;
25319;SDS011;13256;49.012;8.610;2022-10-16T17:24:41;4.03;;;2.40;;
25319;SDS011;13256;49.012;8.610;2022-10-16T17:27:10;3.78;;;3.05;;
25319;SDS011;13256;49.012;8.610;2022-10-16T17:29:39;6.80;;;3.22;;
25319;SDS011;13256;49.012;8.610;2022-10-16T17:32:09;5.55;;;3.40;;
25319;SDS011;13256;49.012;8.610;2022-10-16T17:34:40;13.02;;;2.90;;
25319;SDS011;13256;49.012;8.610;2022-10-16T17:37:10;4.50;;;2.92;;
25319;SDS011;13256;49.012;8.610;2022-10-16T17:39:43;9.98;;;3.25;;
25319;SDS011;13256;49.012;8.610;2022-10-16T17:42:10;8.30;;;2.55;;
25319;SDS011;13256;49.012;8.610;2022-10-16T17:44:39;6.75;;;2.80;;
25319;SDS011;13256;49.012;8.610;2022-10-16T17:47:07;7.45;;;2.80;;
25319;SDS011;13256;49.012;8.610;2022-10-16T17:49:36;19.98;;;5.50;;
25319;SDS011;13256;49.012;8.610;2022-10-16T17:52:03;9.70;;;5.05;;
25319;SDS011;13256;49.012;8.610;2022-10-16T17:54:34;6.53;;;4.13;;
25319;SDS011;13256;49.012;8.610;2022-10-16T17:57:01;7.43;;;4.22;;
25319;SDS011;13256;49.012;8.610;2022-10-16T17:59:27;8.40;;;4.65;;
25319;SDS011;13256;49.012;8.610;2022-10-16T18:01:54;11.52;;;4.88;;
25319;SDS011;13256;49.012;8.610;2022-10-16T18:04:24;9.45;;;4.68;;
25319;SDS011;13256;49.012;8.610;2022-10-16T18:06:53;7.35;;;4.00;;
25319;SDS011;13256;49.012;8.610;2022-10-16T18:09:24;9.35;;;3.88;;
25319;SDS011;13256;49.012;8.610;2022-10-16T18:14:44;12.23;;;2.60;;
25319;SDS011;13256;49.012;8.610;2022-10-16T18:17:13;6.25;;;2.45;;
25319;SDS011;13256;49.012;8.610;2022-10-16T18:22:14;2.60;;;1.70;;
25319;SDS011;13256;49.012;8.610;2022-10-16T18:24:49;6.05;;;2.00;;
25319;SDS011;13256;49.012;8.610;2022-10-16T18:27:16;6.00;;;1.80;;
25319;SDS011;13256;49.012;8.610;2022-10-16T18:29:47;2.65;;;1.90;;
25319;SDS011;13256;49.012;8.610;2022-10-16T18:32:17;2.80;;;1.60;;
25319;SDS011;13256;49.012;8.610;2022-10-16T18:34:44;4.68;;;2.03;;
25319;SDS011;13256;49.012;8.610;2022-10-16T18:37:16;5.43;;;1.23;;
25319;SDS011;13256;49.012;8.610;2022-10-16T18:39:48;2.60;;;1.73;;
25319;SDS011;13256;49.012;8.610;2022-10-16T18:42:18;4.35;;;1.60;;
25319;SDS011;13256;49.012;8.610;2022-10-16T18:44:45;9.85;;;1.60;;
25319;SDS011;13256;49.012;8.610;2022-10-16T18:47:17;2.03;;;1.42;;
25319;SDS011;13256;49.012;8.610;2022-10-16T18:49:48;2.53;;;1.60;;
25319;SDS011;13256;49.012;8.610;2022-10-16T18:52:17;2.42;;;1.65;;
25319;SDS011;13256;49.012;8.610;2022-10-16T18:54:44;2.92;;;1.73;;
25319;SDS011;13256;49.012;8.610;2022-10-16T18:57:13;5.93;;;1.75;;
25319;SDS011;13256;49.012;8.610;2022-10-16T18:59:40;2.90;;;1.63;;
25319;SDS011;13256;49.012;8.610;2022-10-16T19:02:07;6.90;;;2.40;;
25319;SDS011;13256;49.012;8.610;2022-10-16T19:04:37;7.05;;;1.83;;
25319;SDS011;13256;49.012;8.610;2022-10-16T19:07:09;6.45;;;2.28;;
25319;SDS011;13256;49.012;8.610;2022-10-16T19:09:40;3.35;;;1.92;;
25319;SDS011;13256;49.012;8.610;2022-10-16T19:12:07;3.20;;;2.15;;
25319;SDS011;13256;49.012;8.610;2022-10-16T19:32:22;1.83;;;1.40;;
25319;SDS011;13256;49.012;8.610;2022-10-16T19:38:15;6.70;;;2.30;;
25319;SDS011;13256;49.012;8.610;2022-10-16T19:40:42;5.80;;;1.48;;
25319;SDS011;13256;49.012;8.610;2022-10-16T19:43:09;4.05;;;1.35;;
25319;SDS011;13256;49.012;8.610;2022-10-16T19:45:36;5.90;;;1.90;;
25319;SDS011;13256;49.012;8.610;2022-10-16T19:50:54;6.05;;;1.85;;
25319;SDS011;13256;49.012;8.610;2022-10-16T19:53:21;4.88;;;1.58;;
25319;SDS011;13256;49.012;8.610;2022-10-16T19:55:47;6.00;;;1.92;;
25319;SDS011;13256;49.012;8.610;2022-10-16T19:58:22;2.58;;;1.90;;
25319;SDS011;13256;49.012;8.610;2022-10-16T20:00:49;8.95;;;1.90;;
25319;SDS011;13256;49.012;8.610;2022-10-16T20:03:20;5.05;;;1.85;;
25319;SDS011;13256;49.012;8.610;2022-10-16T20:05:55;5.72;;;1.80;;
25319;SDS011;13256;49.012;8.610;2022-10-16T20:08:23;4.15;;;1.45;;